Time;durP1;ratioP1;P1;durP2;ratioP2;P2;SDS_P1;SDS_P2;PMS_P1;PMS_P2;Temp;Humidity;BMP_temperature;BMP_pressure;BME280_temperature;BME280_humidity;BME280_pressure;Samples;Min_cycle;Max_cycle;Signal;HPM_P1;HPM_P2
2023/07/09 00:02:03;;;;;;;10.67;7.30;;;;;;;;;;5054608;28;20179;-67
2023/07/09 00:04:28;;;;;;;14.53;8.17;;;;;;;;;;5054427;28;20313;-68
2023/07/09 00:06:57;;;;;;;14.50;7.60;;;;;;;;;;5054678;28;20289;-68
2023/07/09 00:09:23;;;;;;;11.63;8.23;;;;;;;;;;5054560;28;20174;-68
2023/07/09 00:11:49;;;;;;;10.83;8.03;;;;;;;;;;5054315;28;20174;-68
2023/07/09 00:14:16;;;;;;;12.43;7.90;;;;;;;;;;5054253;28;20175;-68
2023/07/09 00:16:44;;;;;;;11.70;7.17;;;;;;;;;;5036530;28;20178;-68
2023/07/09 00:19:15;;;;;;;12.97;8.23;;;;;;;;;;5054341;28;20175;-68
2023/07/09 00:21:41;;;;;;;9.77;7.83;;;;;;;;;;5054432;28;20158;-68
2023/07/09 00:24:10;;;;;;;13.20;7.73;;;;;;;;;;5036180;28;20183;-68
2023/07/09 00:26:38;;;;;;;10.65;7.70;;;;;;;;;;5052717;28;20506;-68
2023/07/09 00:29:04;;;;;;;10.27;7.20;;;;;;;;;;5034958;28;20382;-68
2023/07/09 00:31:30;;;;;;;9.07;7.40;;;;;;;;;;5053913;28;20551;-68
2023/07/09 00:33:56;;;;;;;10.10;6.70;;;;;;;;;;5053917;28;20249;-68
2023/07/09 00:36:25;;;;;;;10.27;6.73;;;;;;;;;;5035936;28;20213;-68
2023/07/09 00:38:51;;;;;;;10.27;6.67;;;;;;;;;;5035898;28;20676;-68
2023/07/09 00:41:21;;;;;;;10.47;7.10;;;;;;;;;;5053793;28;20183;-67
2023/07/09 00:43:47;;;;;;;13.83;7.20;;;;;;;;;;5053657;28;20183;-67
2023/07/09 00:46:23;;;;;;;8.47;6.60;;;;;;;;;;5053577;28;20233;-68
2023/07/09 00:49:10;;;;;;;9.90;7.00;;;;;;;;;;5053665;28;20174;-67
2023/07/09 00:51:41;;;;;;;7.53;6.47;;;;;;;;;;5053746;28;20185;-68
2023/07/09 00:54:14;;;;;;;14.73;6.77;;;;;;;;;;5054276;28;20475;-68
2023/07/09 00:56:44;;;;;;;8.70;6.63;;;;;;;;;;5054369;28;20248;-68
2023/07/09 00:59:12;;;;;;;7.10;6.33;;;;;;;;;;5053816;28;20625;-68
2023/07/09 01:01:42;;;;;;;8.60;6.27;;;;;;;;;;5053355;28;20179;-68
2023/07/09 01:04:08;;;;;;;13.77;6.83;;;;;;;;;;5053406;28;20201;-67
2023/07/09 01:06:36;;;;;;;8.03;6.27;;;;;;;;;;5053135;28;20690;-68
2023/07/09 01:09:04;;;;;;;9.90;6.93;;;;;;;;;;5053557;28;20174;-68
2023/07/09 01:11:30;;;;;;;9.53;6.53;;;;;;;;;;5053416;28;20652;-68
2023/07/09 01:13:58;;;;;;;10.23;7.13;;;;;;;;;;5053886;28;20663;-68
2023/07/09 01:16:27;;;;;;;10.90;6.77;;;;;;;;;;5036679;28;20201;-68
2023/07/09 01:18:53;;;;;;;7.90;6.90;;;;;;;;;;5036727;28;20256;-68
2023/07/09 01:21:19;;;;;;;7.37;6.07;;;;;;;;;;5036619;28;20251;-67
2023/07/09 01:23:47;;;;;;;8.10;6.23;;;;;;;;;;5035627;28;20190;-69
2023/07/09 01:26:14;;;;;;;11.73;6.80;;;;;;;;;;5035232;28;20275;-67
2023/07/09 01:28:43;;;;;;;16.93;7.43;;;;;;;;;;5053280;28;20325;-68
2023/07/09 01:31:11;;;;;;;10.67;7.07;;;;;;;;;;5053689;28;20175;-67
2023/07/09 01:33:39;;;;;;;10.27;6.93;;;;;;;;;;5053078;28;20221;-68
2023/07/09 01:36:06;;;;;;;9.57;7.00;;;;;;;;;;5052910;28;20213;-68
2023/07/09 01:38:33;;;;;;;9.60;7.07;;;;;;;;;;5035854;28;20562;-68
2023/07/09 01:40:59;;;;;;;9.50;6.90;;;;;;;;;;5035040;28;20170;-69
2023/07/09 01:43:26;;;;;;;11.90;8.07;;;;;;;;;;5033947;28;20401;-68
2023/07/09 01:45:52;;;;;;;11.73;8.10;;;;;;;;;;5051956;28;20413;-68
2023/07/09 01:48:20;;;;;;;16.70;8.47;;;;;;;;;;5052782;28;20280;-68
2023/07/09 01:50:49;;;;;;;11.97;8.07;;;;;;;;;;5052888;28;20601;-68
2023/07/09 01:53:16;;;;;;;15.30;8.03;;;;;;;;;;5035129;28;20202;-68
2023/07/09 01:55:42;;;;;;;11.20;8.37;;;;;;;;;;5052966;28;20179;-68
2023/07/09 01:58:08;;;;;;;13.70;8.80;;;;;;;;;;5052738;28;20198;-67
2023/07/09 02:00:35;;;;;;;13.30;8.67;;;;;;;;;;5052724;28;20183;-68
2023/07/09 02:03:02;;;;;;;14.73;9.07;;;;;;;;;;5052672;28;20645;-68
2023/07/09 02:05:28;;;;;;;13.80;8.83;;;;;;;;;;5052686;28;20178;-69
2023/07/09 02:07:54;;;;;;;18.43;8.80;;;;;;;;;;5052641;28;20244;-68
2023/07/09 02:10:20;;;;;;;14.00;8.70;;;;;;;;;;5053038;28;20175;-67
2023/07/09 02:12:47;;;;;;;15.03;9.00;;;;;;;;;;5052565;28;20641;-68
2023/07/09 02:15:13;;;;;;;13.43;8.93;;;;;;;;;;5052715;28;20174;-68
2023/07/09 02:17:39;;;;;;;15.20;9.07;;;;;;;;;;5034750;28;20242;-68
2023/07/09 02:20:06;;;;;;;11.97;8.80;;;;;;;;;;5052621;28;20186;-68
2023/07/09 02:22:33;;;;;;;15.60;9.50;;;;;;;;;;5055029;28;20174;-68
2023/07/09 02:24:59;;;;;;;15.87;10.03;;;;;;;;;;5056678;28;20179;-68
2023/07/09 02:27:25;;;;;;;19.17;10.43;;;;;;;;;;5056827;28;20206;-68
2023/07/09 02:29:51;;;;;;;14.93;10.60;;;;;;;;;;5038398;28;20186;-68
2023/07/09 02:32:21;;;;;;;14.07;10.53;;;;;;;;;;5038647;28;20189;-68
2023/07/09 02:34:48;;;;;;;16.40;10.57;;;;;;;;;;5038687;28;20614;-68
2023/07/09 02:37:15;;;;;;;13.70;10.83;;;;;;;;;;5056249;28;20207;-68
2023/07/09 02:39:40;;;;;;;17.87;11.90;;;;;;;;;;5056310;28;20652;-68
2023/07/09 02:42:09;;;;;;;18.43;11.83;;;;;;;;;;5056598;28;20187;-68
2023/07/09 02:44:35;;;;;;;13.83;11.03;;;;;;;;;;5056005;28;20178;-68
2023/07/09 02:47:00;;;;;;;15.80;11.47;;;;;;;;;;5055987;28;20206;-69
2023/07/09 02:49:26;;;;;;;15.97;11.73;;;;;;;;;;5056179;28;20190;-69
2023/07/09 02:51:52;;;;;;;17.60;11.00;;;;;;;;;;5055789;28;20228;-68
2023/07/09 02:54:18;;;;;;;17.20;12.30;;;;;;;;;;5055152;28;20870;-68
2023/07/09 02:56:44;;;;;;;16.45;12.52;;;;;;;;;;5036651;28;20404;-68
2023/07/09 02:59:11;;;;;;;16.38;11.95;;;;;;;;;;5054501;28;20385;-68
2023/07/09 03:01:37;;;;;;;18.53;11.60;;;;;;;;;;5054790;28;20860;-68
2023/07/09 03:04:03;;;;;;;14.98;11.18;;;;;;;;;;5054707;28;20385;-68
2023/07/09 03:06:32;;;;;;;15.65;11.40;;;;;;;;;;5054340;28;20471;-68
2023/07/09 03:08:58;;;;;;;17.00;11.02;;;;;;;;;;5036531;28;20408;-68
2023/07/09 03:11:24;;;;;;;14.57;11.30;;;;;;;;;;5054360;28;20764;-68
2023/07/09 03:13:50;;;;;;;14.05;11.02;;;;;;;;;;5054264;28;20390;-68
2023/07/09 03:16:18;;;;;;;15.32;10.82;;;;;;;;;;5054244;28;20883;-68
2023/07/09 03:18:44;;;;;;;16.03;10.10;;;;;;;;;;5036336;28;20389;-68
2023/07/09 03:21:10;;;;;;;13.65;9.90;;;;;;;;;;5054357;28;20788;-68
2023/07/09 03:23:36;;;;;;;14.40;9.85;;;;;;;;;;5054041;28;20844;-68
2023/07/09 03:26:02;;;;;;;11.48;9.20;;;;;;;;;;5036031;28;20902;-68
2023/07/09 03:28:30;;;;;;;11.88;8.90;;;;;;;;;;5053855;28;20384;-68
2023/07/09 03:30:56;;;;;;;12.75;9.07;;;;;;;;;;5053938;28;20464;-68
2023/07/09 03:33:22;;;;;;;11.10;9.38;;;;;;;;;;5053756;28;20478;-68
2023/07/09 03:35:48;;;;;;;13.05;9.65;;;;;;;;;;5053775;28;20377;-68
2023/07/09 03:38:14;;;;;;;11.85;9.02;;;;;;;;;;5053956;28;20430;-68
2023/07/09 03:40:40;;;;;;;13.32;8.65;;;;;;;;;;5053738;28;20385;-68
2023/07/09 03:43:09;;;;;;;14.05;9.48;;;;;;;;;;5036211;28;20415;-68
2023/07/09 03:45:35;;;;;;;15.60;9.18;;;;;;;;;;5053657;28;20395;-68
2023/07/09 03:48:02;;;;;;;12.82;8.88;;;;;;;;;;5053780;28;20443;-68
2023/07/09 03:50:28;;;;;;;11.70;8.68;;;;;;;;;;5036133;28;20390;-68
2023/07/09 03:52:53;;;;;;;10.80;8.80;;;;;;;;;;5054888;28;20427;-68
2023/07/09 03:55:20;;;;;;;10.60;8.13;;;;;;;;;;5055046;28;20455;-68
2023/07/09 03:57:46;;;;;;;11.15;8.30;;;;;;;;;;5054232;28;20400;-68
2023/07/09 04:00:12;;;;;;;11.73;8.45;;;;;;;;;;5053990;28;20385;-68
2023/07/09 04:02:39;;;;;;;12.07;8.00;;;;;;;;;;5053876;28;20389;-68
2023/07/09 04:05:05;;;;;;;10.93;8.32;;;;;;;;;;5053711;28;20454;-68
2023/07/09 04:07:31;;;;;;;12.20;8.25;;;;;;;;;;5053216;28;20409;-68
2023/07/09 04:09:57;;;;;;;10.60;8.43;;;;;;;;;;5053148;28;20523;-68
2023/07/09 04:12:23;;;;;;;12.07;8.27;;;;;;;;;;5053159;28;20377;-68
2023/07/09 04:14:49;;;;;;;9.45;8.23;;;;;;;;;;5053146;28;20435;-68
2023/07/09 04:17:15;;;;;;;10.10;8.23;;;;;;;;;;5053136;28;20452;-68
2023/07/09 04:19:41;;;;;;;11.18;8.15;;;;;;;;;;5035078;28;20518;-68
2023/07/09 04:22:07;;;;;;;11.80;8.05;;;;;;;;;;5052925;28;20439;-68
2023/07/09 04:24:33;;;;;;;9.43;8.20;;;;;;;;;;5053203;28;20495;-68
2023/07/09 04:27:02;;;;;;;11.75;8.55;;;;;;;;;;5034747;28;20402;-68
2023/07/09 04:29:29;;;;;;;11.82;8.32;;;;;;;;;;5034932;28;20760;-68
2023/07/09 04:31:54;;;;;;;11.00;7.67;;;;;;;;;;5052622;28;20458;-68
2023/07/09 04:34:20;;;;;;;11.13;8.20;;;;;;;;;;5052712;28;20426;-68
2023/07/09 04:36:46;;;;;;;13.98;8.07;;;;;;;;;;5052487;28;20393;-68
2023/07/09 04:39:12;;;;;;;11.88;7.75;;;;;;;;;;5052902;28;20377;-69
2023/07/09 04:41:38;;;;;;;10.20;7.75;;;;;;;;;;5053289;28;20420;-68
2023/07/09 04:44:04;;;;;;;10.93;7.82;;;;;;;;;;5056572;23;20765;-64
2023/07/09 04:46:30;;;;;;;10.25;7.70;;;;;;;;;;5052733;28;20430;-65
2023/07/09 04:48:56;;;;;;;12.25;7.78;;;;;;;;;;5034809;28;20871;-65
2023/07/09 04:51:22;;;;;;;11.70;7.82;;;;;;;;;;5034766;28;20436;-65
2023/07/09 04:53:51;;;;;;;11.63;7.37;;;;;;;;;;5053058;28;20779;-65
2023/07/09 04:56:17;;;;;;;11.17;7.43;;;;;;;;;;5034777;28;20473;-65
2023/07/09 04:58:43;;;;;;;11.27;6.73;;;;;;;;;;5053822;28;20182;-65
2023/07/09 05:01:09;;;;;;;10.30;6.73;;;;;;;;;;5035732;28;20585;-65
2023/07/09 05:03:36;;;;;;;;;;;;;;;;;;5054085;28;20146;-65
2023/07/09 05:06:02;;;;;;;;;;;;;;;;;;5054190;28;19912;-65
2023/07/09 05:08:28;;;;;;;12.20;6.47;;;;;;;;;;5053926;28;19999;-65
2023/07/09 05:10:55;;;;;;;9.80;7.18;;;;;;;;;;5052799;28;20421;-65
2023/07/09 05:13:21;;;;;;;9.40;7.00;;;;;;;;;;5052671;28;20385;-65
2023/07/09 05:15:47;;;;;;;9.43;7.32;;;;;;;;;;5034544;28;20803;-65
2023/07/09 05:18:14;;;;;;;9.97;7.13;;;;;;;;;;5034559;28;20491;-66
2023/07/09 05:20:40;;;;;;;9.35;7.45;;;;;;;;;;5052833;28;20381;-66
2023/07/09 05:23:07;;;;;;;9.88;7.60;;;;;;;;;;5037189;28;20389;-65
2023/07/09 05:25:33;;;;;;;8.02;6.97;;;;;;;;;;5019654;28;20382;-65
2023/07/09 05:27:59;;;;;;;10.18;7.57;;;;;;;;;;5035929;28;20455;-65
2023/07/09 05:30:26;;;;;;;12.00;8.00;;;;;;;;;;5052622;28;20369;-65
2023/07/09 05:32:53;;;;;;;10.43;7.07;;;;;;;;;;5052177;28;20377;-65
2023/07/09 05:35:19;;;;;;;10.02;7.25;;;;;;;;;;5052840;28;20891;-65
2023/07/09 05:37:45;;;;;;;11.35;7.35;;;;;;;;;;5034203;28;20401;-66
2023/07/09 05:40:11;;;;;;;9.65;6.97;;;;;;;;;;5052295;28;20385;-65
2023/07/09 05:42:37;;;;;;;10.63;7.13;;;;;;;;;;5034092;28;20386;-66
2023/07/09 05:45:03;;;;;;;9.00;7.05;;;;;;;;;;5033984;28;20397;-65
2023/07/09 05:47:29;;;;;;;9.95;7.32;;;;;;;;;;5051899;28;20467;-66
2023/07/09 05:49:55;;;;;;;11.02;7.32;;;;;;;;;;5051877;28;20381;-67
2023/07/09 05:52:23;;;;;;;9.55;6.95;;;;;;;;;;5034101;28;20370;-65
2023/07/09 05:54:49;;;;;;;9.57;6.50;;;;;;;;;;5051951;28;20396;-65
2023/07/09 05:57:15;;;;;;;11.02;6.70;;;;;;;;;;5037931;28;20465;-66
2023/07/09 05:59:41;;;;;;;10.82;6.40;;;;;;;;;;5056601;28;20407;-66
2023/07/09 06:02:11;;;;;;;9.82;6.68;;;;;;;;;;5057005;28;20464;-65
2023/07/09 06:04:37;;;;;;;10.20;6.93;;;;;;;;;;5037960;28;20749;-65
2023/07/09 06:07:03;;;;;;;9.63;7.53;;;;;;;;;;5055696;28;20479;-66
2023/07/09 06:09:29;;;;;;;9.40;7.03;;;;;;;;;;5038932;28;20210;-66
2023/07/09 06:11:55;;;;;;;10.27;7.00;;;;;;;;;;5038845;28;20645;-66
2023/07/09 06:14:21;;;;;;;8.63;6.87;;;;;;;;;;5056954;28;20217;-66
2023/07/09 06:16:47;;;;;;;10.07;7.03;;;;;;;;;;5057238;28;20641;-66
2023/07/09 06:19:13;;;;;;;12.00;6.67;;;;;;;;;;5057222;28;20640;-66
2023/07/09 06:21:40;;;;;;;8.43;6.37;;;;;;;;;;5038785;28;20273;-65
2023/07/09 06:24:07;;;;;;;13.80;6.70;;;;;;;;;;5056739;28;20202;-65
2023/07/09 06:26:33;;;;;;;8.90;6.57;;;;;;;;;;5056909;28;20202;-66
2023/07/09 06:28:58;;;;;;;8.40;6.17;;;;;;;;;;5057078;28;20174;-65
2023/07/09 06:31:25;;;;;;;12.27;10.13;;;;;;;;;;5059588;28;20259;-66
2023/07/09 06:33:51;;;;;;;9.30;6.90;;;;;;;;;;5059417;28;20225;-66
2023/07/09 06:36:17;;;;;;;9.60;6.60;;;;;;;;;;5056576;28;20214;-65
2023/07/09 06:38:44;;;;;;;12.83;8.93;;;;;;;;;;5056267;28;20179;-66
2023/07/09 06:41:10;;;;;;;9.13;6.77;;;;;;;;;;5056300;28;20671;-65
2023/07/09 06:43:38;;;;;;;10.77;7.77;;;;;;;;;;5056104;28;20237;-65
2023/07/09 06:46:05;;;;;;;11.77;6.97;;;;;;;;;;5056659;28;20257;-66
2023/07/09 06:48:31;;;;;;;8.93;6.07;;;;;;;;;;5056239;28;20183;-67
2023/07/09 06:50:58;;;;;;;10.00;6.77;;;;;;;;;;5038403;28;20174;-65
2023/07/09 06:53:24;;;;;;;16.17;6.27;;;;;;;;;;5056235;28;20175;-65
2023/07/09 06:55:52;;;;;;;11.07;6.77;;;;;;;;;;5056112;28;20236;-65
2023/07/09 06:58:19;;;;;;;8.93;6.77;;;;;;;;;;5056597;28;20198;-66
2023/07/09 07:00:45;;;;;;;7.80;5.90;;;;;;;;;;5056006;28;20177;-66
2023/07/09 07:03:11;;;;;;;9.93;6.60;;;;;;;;;;5055591;28;20182;-65
2023/07/09 07:05:40;;;;;;;8.37;5.77;;;;;;;;;;5039121;28;20178;-65
2023/07/09 07:08:06;;;;;;;8.33;6.67;;;;;;;;;;5058842;28;20204;-66
2023/07/09 07:10:32;;;;;;;7.63;5.97;;;;;;;;;;5038997;28;20179;-66
2023/07/09 07:12:58;;;;;;;8.47;6.50;;;;;;;;;;5038438;28;20194;-66
2023/07/09 07:15:24;;;;;;;13.37;7.07;;;;;;;;;;5056331;28;20277;-66
2023/07/09 07:17:50;;;;;;;8.90;6.57;;;;;;;;;;5038755;28;20179;-66
2023/07/09 07:20:16;;;;;;;7.83;6.47;;;;;;;;;;5056148;28;20186;-66
2023/07/09 07:22:42;;;;;;;11.33;6.93;;;;;;;;;;5056610;28;20179;-66
2023/07/09 07:25:09;;;;;;;8.23;6.73;;;;;;;;;;5056332;28;20572;-66
2023/07/09 07:27:36;;;;;;;8.63;6.43;;;;;;;;;;5055918;28;20206;-66
2023/07/09 07:30:03;;;;;;;9.47;6.00;;;;;;;;;;5055812;28;20175;-66
2023/07/09 07:32:29;;;;;;;10.20;6.53;;;;;;;;;;5038044;28;20183;-66
2023/07/09 07:34:55;;;;;;;10.10;6.73;;;;;;;;;;5055721;28;20201;-66
2023/07/09 07:37:21;;;;;;;8.77;6.87;;;;;;;;;;5038473;28;20185;-66
2023/07/09 07:39:50;;;;;;;11.37;7.50;;;;;;;;;;5038260;28;20536;-66
2023/07/09 07:42:16;;;;;;;9.40;6.53;;;;;;;;;;5056039;28;20217;-67
2023/07/09 07:44:42;;;;;;;9.57;7.00;;;;;;;;;;5056870;28;20218;-66
2023/07/09 07:47:08;;;;;;;11.83;6.63;;;;;;;;;;5039514;28;20206;-66
2023/07/09 07:49:34;;;;;;;10.27;6.20;;;;;;;;;;5039174;28;20178;-66
2023/07/09 07:52:03;;;;;;;7.63;6.27;;;;;;;;;;5056065;28;20178;-66
2023/07/09 07:54:30;;;;;;;12.67;9.20;;;;;;;;;;5038631;28;20198;-67
2023/07/09 07:56:56;;;;;;;13.77;11.33;;;;;;;;;;5037967;28;20232;-66
2023/07/09 07:59:22;;;;;;;10.20;9.20;;;;;;;;;;5038446;28;20186;-66
2023/07/09 08:01:48;;;;;;;14.60;13.20;;;;;;;;;;5055929;28;20277;-67
2023/07/09 08:04:14;;;;;;;13.47;8.60;;;;;;;;;;5038099;28;20199;-66
2023/07/09 08:06:40;;;;;;;14.97;9.57;;;;;;;;;;5038154;28;20611;-67
2023/07/09 08:09:06;;;;;;;14.70;12.40;;;;;;;;;;5056581;28;20175;-67
2023/07/09 08:11:32;;;;;;;13.30;12.03;;;;;;;;;;5038294;28;20191;-67
2023/07/09 08:13:58;;;;;;;15.40;9.80;;;;;;;;;;5057145;28;20195;-69
2023/07/09 08:16:24;;;;;;;10.53;8.80;;;;;;;;;;5056112;28;20194;-68
2023/07/09 08:18:51;;;;;;;13.53;10.00;;;;;;;;;;5036985;28;20232;-68
2023/07/09 08:21:17;;;;;;;11.73;8.47;;;;;;;;;;5037894;28;20603;-67
2023/07/09 08:23:43;;;;;;;15.73;7.83;;;;;;;;;;5055982;28;20721;-65
2023/07/09 08:26:09;;;;;;;11.73;6.73;;;;;;;;;;5056341;28;20175;-64
2023/07/09 08:28:35;;;;;;;11.83;7.40;;;;;;;;;;5056173;28;20166;-65
2023/07/09 08:31:02;;;;;;;10.73;7.47;;;;;;;;;;5038807;28;20191;-65
2023/07/09 08:33:28;;;;;;;7.87;6.63;;;;;;;;;;5057336;28;20547;-66
2023/07/09 08:35:54;;;;;;;13.68;6.53;;;;;;;;;;5057840;28;20182;-66
2023/07/09 08:38:20;;;;;;;12.55;6.75;;;;;;;;;;5039380;28;20202;-66
2023/07/09 08:41:00;;;;;;;12.00;7.23;;;;;;;;;;5057722;28;20181;-66
2023/07/09 08:43:50;;;;;;;12.50;6.57;;;;;;;;;;5056403;28;20257;-66
2023/07/09 08:46:29;;;;;;;8.43;6.30;;;;;;;;;;5055574;28;20193;-66
2023/07/09 08:48:56;;;;;;;12.67;11.37;;;;;;;;;;5055312;28;20292;-66
2023/07/09 08:51:28;;;;;;;21.95;11.18;;;;;;;;;;5055628;28;20215;-66
2023/07/09 08:53:57;;;;;;;16.50;12.52;;;;;;;;;;5055557;28;20198;-66
2023/07/09 08:56:23;;;;;;;16.23;13.40;;;;;;;;;;5054550;28;20439;-66
2023/07/09 08:58:50;;;;;;;13.02;11.73;;;;;;;;;;5053769;28;20377;-67
2023/07/09 09:01:21;;;;;;;13.05;9.10;;;;;;;;;;5036150;28;20373;-66
2023/07/09 09:03:51;;;;;;;16.98;12.35;;;;;;;;;;5035688;28;20416;-67
2023/07/09 09:06:20;;;;;;;14.25;11.65;;;;;;;;;;5053348;28;20860;-66
2023/07/09 09:09:02;;;;;;;16.55;14.90;;;;;;;;;;5035633;28;20417;-66
2023/07/09 09:11:41;;;;;;;13.80;10.85;;;;;;;;;;5053633;28;20464;-66
2023/07/09 09:14:15;;;;;;;13.43;10.80;;;;;;;;;;5052996;28;20456;-66
2023/07/09 09:16:44;;;;;;;11.80;8.35;;;;;;;;;;5035362;28;20382;-65
2023/07/09 09:19:21;;;;;;;11.45;7.95;;;;;;;;;;5035591;28;20381;-66
2023/07/09 09:21:48;;;;;;;17.30;11.60;;;;;;;;;;5053009;28;20377;-66
2023/07/09 09:24:16;;;;;;;17.73;15.05;;;;;;;;;;5035081;28;20394;-67
2023/07/09 09:26:44;;;;;;;20.52;17.42;;;;;;;;;;5034697;28;20408;-67
2023/07/09 09:29:11;;;;;;;15.65;10.65;;;;;;;;;;5035069;28;20390;-67
2023/07/09 09:31:37;;;;;;;15.07;8.83;;;;;;;;;;5034609;28;20386;-67
2023/07/09 09:34:05;;;;;;;13.35;7.22;;;;;;;;;;5052855;28;20432;-68
2023/07/09 09:36:31;;;;;;;12.13;7.20;;;;;;;;;;5052668;28;20378;-67
2023/07/09 09:39:02;;;;;;;10.23;7.50;;;;;;;;;;5052935;28;20472;-68
2023/07/09 09:41:31;;;;;;;17.58;15.35;;;;;;;;;;5036192;28;20178;-67
2023/07/09 09:43:57;;;;;;;20.23;17.05;;;;;;;;;;5053915;28;20218;-66
2023/07/09 09:46:24;;;;;;;33.03;24.45;;;;;;;;;;5036343;28;20178;-69
2023/07/09 09:48:51;;;;;;;29.33;21.10;;;;;;;;;;5036503;28;20175;-67
2023/07/09 09:51:18;;;;;;;23.10;16.33;;;;;;;;;;5035904;28;20230;-68
2023/07/09 09:53:51;;;;;;;19.25;15.32;;;;;;;;;;5054241;28;20668;-67
2023/07/09 09:56:29;;;;;;;16.05;11.05;;;;;;;;;;5053954;28;20175;-67
2023/07/09 09:58:56;;;;;;;22.27;15.18;;;;;;;;;;5054125;28;20158;-67
2023/07/09 10:01:26;;;;;;;18.80;9.73;;;;;;;;;;5036006;28;20244;-67
2023/07/09 10:03:55;;;;;;;17.13;10.45;;;;;;;;;;5054356;28;20198;-68
2023/07/09 10:06:28;;;;;;;12.98;8.23;;;;;;;;;;5053530;28;20589;-67
2023/07/09 10:09:00;;;;;;;16.92;7.80;;;;;;;;;;5054351;28;20155;-66
2023/07/09 10:11:40;;;;;;;13.13;8.80;;;;;;;;;;5053792;28;20209;-66
2023/07/09 10:14:23;;;;;;;11.98;7.53;;;;;;;;;;5036067;28;20190;-65
2023/07/09 10:16:52;;;;;;;10.73;7.10;;;;;;;;;;5054136;28;20191;-66
2023/07/09 10:19:25;;;;;;;13.25;8.20;;;;;;;;;;5054044;28;20521;-67
2023/07/09 10:22:09;;;;;;;10.07;6.80;;;;;;;;;;5053864;28;20205;-67
2023/07/09 10:24:38;;;;;;;17.83;15.13;;;;;;;;;;5035646;28;20213;-66
2023/07/09 10:27:04;;;;;;;10.05;7.22;;;;;;;;;;5035491;28;20324;-66
2023/07/09 10:29:38;;;;;;;12.05;6.45;;;;;;;;;;5053285;28;20179;-66
2023/07/09 10:32:15;;;;;;;12.38;6.70;;;;;;;;;;5054292;28;20211;-66
2023/07/09 10:34:50;;;;;;;19.17;10.68;;;;;;;;;;5035634;28;20205;-66
2023/07/09 10:37:39;;;;;;;13.35;10.48;;;;;;;;;;5053635;28;20194;-67
2023/07/09 10:40:09;;;;;;;12.82;9.05;;;;;;;;;;5053585;28;20188;-66
2023/07/09 10:42:38;;;;;;;23.67;16.65;;;;;;;;;;5037537;28;20183;-67
2023/07/09 10:45:12;;;;;;;20.25;16.58;;;;;;;;;;5057809;28;20797;-66
2023/07/09 10:47:43;;;;;;;14.27;12.85;;;;;;;;;;5057395;28;20198;-66
2023/07/09 10:50:15;;;;;;;10.35;8.43;;;;;;;;;;5058805;28;20209;-66
2023/07/09 10:52:44;;;;;;;11.73;7.05;;;;;;;;;;5039591;28;20166;-66
2023/07/09 10:55:19;;;;;;;15.80;9.68;;;;;;;;;;5039692;28;20191;-66
2023/07/09 10:57:49;;;;;;;11.43;6.13;;;;;;;;;;5056964;28;20185;-66
2023/07/09 11:00:19;;;;;;;13.73;8.07;;;;;;;;;;5057252;28;20193;-66
2023/07/09 11:02:45;;;;;;;18.63;11.57;;;;;;;;;;5057139;28;20260;-66
2023/07/09 11:05:11;;;;;;;10.10;8.38;;;;;;;;;;5057684;28;20252;-66
2023/07/09 11:08:03;;;;;;;9.38;7.70;;;;;;;;;;5058465;28;20533;-66
2023/07/09 11:10:34;;;;;;;7.68;6.72;;;;;;;;;;5033547;28;20582;-66
2023/07/09 11:13:16;;;;;;;11.68;7.93;;;;;;;;;;5056461;28;20182;-66
2023/07/09 11:15:43;;;;;;;9.23;5.93;;;;;;;;;;5056460;28;20189;-66
2023/07/09 11:18:13;;;;;;;9.20;6.18;;;;;;;;;;5056481;28;20596;-68
2023/07/09 11:20:44;;;;;;;9.73;7.05;;;;;;;;;;5056714;28;20170;-67
2023/07/09 11:23:24;;;;;;;11.98;7.78;;;;;;;;;;5056679;28;20257;-66
2023/07/09 11:26:09;;;;;;;16.95;14.95;;;;;;;;;;5056985;28;20209;-67
2023/07/09 11:28:35;;;;;;;10.57;7.78;;;;;;;;;;5038989;28;20206;-68
2023/07/09 11:31:28;;;;;;;9.15;6.90;;;;;;;;;;5037935;28;20201;-66
2023/07/09 11:34:00;;;;;;;10.68;6.30;;;;;;;;;;5054323;28;20276;-66
2023/07/09 11:36:28;;;;;;;15.98;13.68;;;;;;;;;;5039486;28;20228;-66
2023/07/09 11:38:55;;;;;;;8.60;7.18;;;;;;;;;;5057985;28;20239;-66
2023/07/09 11:41:33;;;;;;;6.50;5.53;;;;;;;;;;5039334;28;20679;-66
2023/07/09 11:44:16;;;;;;;6.40;5.35;;;;;;;;;;5040072;28;20706;-66
2023/07/09 11:47:11;;;;;;;10.07;6.47;;;;;;;;;;5047777;22;20230;-66
2023/07/09 11:49:44;;;;;;;8.70;6.90;;;;;;;;;;5017395;28;20171;-66
2023/07/09 11:52:10;;;;;;;8.77;7.35;;;;;;;;;;5017344;28;20163;-66
2023/07/09 11:54:37;;;;;;;6.82;6.13;;;;;;;;;;5035263;28;20207;-66
2023/07/09 11:57:04;;;;;;;11.27;8.77;;;;;;;;;;5017625;28;20210;-67
2023/07/09 11:59:30;;;;;;;9.30;7.95;;;;;;;;;;5017424;28;20282;-67
2023/07/09 12:02:00;;;;;;;8.93;5.45;;;;;;;;;;5017390;28;20223;-67
2023/07/09 12:04:31;;;;;;;7.63;5.72;;;;;;;;;;5017271;28;20186;-67
2023/07/09 12:06:58;;;;;;;10.55;5.90;;;;;;;;;;5034839;28;20696;-66
2023/07/09 12:09:24;;;;;;;8.25;5.90;;;;;;;;;;5034930;28;20241;-67
2023/07/09 12:11:51;;;;;;;11.68;6.53;;;;;;;;;;5034934;28;20649;-66
2023/07/09 12:14:18;;;;;;;8.32;6.38;;;;;;;;;;5034836;28;20653;-67
2023/07/09 12:16:46;;;;;;;11.63;5.90;;;;;;;;;;5035280;28;20195;-67
2023/07/09 12:19:12;;;;;;;9.68;6.25;;;;;;;;;;5016974;28;20183;-67
2023/07/09 12:21:39;;;;;;;8.07;5.97;;;;;;;;;;5034887;28;20620;-67
2023/07/09 12:24:17;;;;;;;9.50;5.82;;;;;;;;;;5016831;28;20221;-67
2023/07/09 12:26:43;;;;;;;9.45;6.00;;;;;;;;;;5016608;28;20258;-67
2023/07/09 12:29:10;;;;;;;9.95;6.03;;;;;;;;;;5034763;28;20171;-67
2023/07/09 12:31:36;;;;;;;10.93;5.93;;;;;;;;;;5016762;28;20217;-67
2023/07/09 12:34:01;;;;;;;12.10;6.30;;;;;;;;;;5034798;28;20179;-66
2023/07/09 12:36:28;;;;;;;6.18;5.38;;;;;;;;;;5034072;28;20197;-67
2023/07/09 12:38:57;;;;;;;8.75;6.18;;;;;;;;;;5034463;28;20179;-67
2023/07/09 12:41:24;;;;;;;6.63;5.93;;;;;;;;;;5034525;28;20541;-67
2023/07/09 12:43:51;;;;;;;10.73;6.43;;;;;;;;;;5034680;28;20171;-66
2023/07/09 12:46:17;;;;;;;7.75;6.15;;;;;;;;;;5034089;28;20218;-66
2023/07/09 12:48:43;;;;;;;12.30;7.30;;;;;;;;;;5034445;28;20220;-66
2023/07/09 12:51:09;;;;;;;6.47;5.63;;;;;;;;;;5016293;28;20176;-66
2023/07/09 12:53:37;;;;;;;9.43;6.70;;;;;;;;;;5033880;28;20171;-66
2023/07/09 12:56:03;;;;;;;7.80;5.65;;;;;;;;;;5016397;28;20641;-66
2023/07/09 12:58:30;;;;;;;10.10;6.47;;;;;;;;;;5034237;28;20183;-66
2023/07/09 13:00:57;;;;;;;8.63;6.30;;;;;;;;;;5033917;28;20182;-66
2023/07/09 13:03:28;;;;;;;9.73;5.70;;;;;;;;;;5016126;28;20225;-66
2023/07/09 13:06:02;;;;;;;9.20;6.53;;;;;;;;;;5033032;28;20171;-66
2023/07/09 13:08:29;;;;;;;8.60;5.88;;;;;;;;;;5015864;28;20215;-66
2023/07/09 13:10:56;;;;;;;7.60;5.97;;;;;;;;;;5015884;28;20183;-66
2023/07/09 13:13:22;;;;;;;6.75;6.03;;;;;;;;;;5033895;28;20677;-66
2023/07/09 13:15:50;;;;;;;10.80;6.15;;;;;;;;;;5033847;28;20649;-64
2023/07/09 13:18:16;;;;;;;11.40;6.18;;;;;;;;;;5015814;28;20175;-66
2023/07/09 13:20:43;;;;;;;6.13;5.53;;;;;;;;;;5033337;28;20311;-66
2023/07/09 13:23:14;;;;;;;6.40;5.80;;;;;;;;;;5033476;28;20175;-66
2023/07/09 13:25:40;;;;;;;9.40;6.50;;;;;;;;;;5015657;28;20265;-66
2023/07/09 13:28:14;;;;;;;12.75;6.35;;;;;;;;;;5015411;28;20206;-65
2023/07/09 13:30:40;;;;;;;6.55;5.85;;;;;;;;;;5033395;28;20163;-66
2023/07/09 13:33:11;;;;;;;7.53;5.97;;;;;;;;;;5015356;28;20206;-66
2023/07/09 13:35:37;;;;;;;6.97;5.93;;;;;;;;;;5015389;28;20332;-67
2023/07/09 13:38:05;;;;;;;9.75;5.72;;;;;;;;;;5033101;28;20198;-67
2023/07/09 13:40:31;;;;;;;14.80;6.80;;;;;;;;;;5015518;28;20186;-67
2023/07/09 13:42:57;;;;;;;28.42;9.73;;;;;;;;;;5035373;28;20642;-67
2023/07/09 13:45:24;;;;;;;20.25;8.63;;;;;;;;;;5033579;28;20179;-67
2023/07/09 13:47:51;;;;;;;20.77;8.57;;;;;;;;;;5034006;28;20219;-68
2023/07/09 13:50:18;;;;;;;17.57;8.63;;;;;;;;;;5033815;28;20182;-69
2023/07/09 13:52:44;;;;;;;16.60;8.37;;;;;;;;;;5033120;28;20181;-69
2023/07/09 13:55:17;;;;;;;19.27;8.87;;;;;;;;;;5033427;28;20202;-69
2023/07/09 13:57:44;;;;;;;16.93;8.43;;;;;;;;;;5015512;28;20237;-69
2023/07/09 14:00:10;;;;;;;16.58;10.32;;;;;;;;;;5014278;28;20390;-68
2023/07/09 14:02:37;;;;;;;14.82;9.13;;;;;;;;;;5031889;28;20375;-68
2023/07/09 14:05:05;;;;;;;9.85;6.22;;;;;;;;;;5014029;28;20387;-68
2023/07/09 14:07:32;;;;;;;11.50;6.90;;;;;;;;;;5031534;28;20410;-68
2023/07/09 14:09:59;;;;;;;9.00;6.00;;;;;;;;;;5032462;28;20386;-67
2023/07/09 14:12:26;;;;;;;6.97;5.30;;;;;;;;;;5033310;28;20258;-69
2023/07/09 14:14:53;;;;;;;10.70;5.20;;;;;;;;;;5015637;28;20186;-68
2023/07/09 14:17:19;;;;;;;8.80;6.23;;;;;;;;;;5035792;28;20231;-69
2023/07/09 14:19:45;;;;;;;11.53;7.07;;;;;;;;;;5036919;28;20592;-69
2023/07/09 14:22:31;;;;;;;10.60;6.90;;;;;;;;;;5019009;28;20710;-69
2023/07/09 14:24:57;;;;;;;10.93;6.53;;;;;;;;;;5036815;28;20569;-68
2023/07/09 14:27:23;;;;;;;9.70;6.73;;;;;;;;;;5036460;28;20257;-68
2023/07/09 14:29:49;;;;;;;12.10;6.83;;;;;;;;;;5036476;28;20179;-69
2023/07/09 14:32:36;;;;;;;11.40;6.70;;;;;;;;;;5018863;28;20179;-69
2023/07/09 14:35:03;;;;;;;11.70;6.10;;;;;;;;;;5036412;28;20175;-68
2023/07/09 14:37:29;;;;;;;9.03;6.77;;;;;;;;;;5036627;28;20207;-69
2023/07/09 14:39:55;;;;;;;9.37;6.70;;;;;;;;;;5018942;28;20273;-69